Time;durP1;ratioP1;P1;durP2;ratioP2;P2;SDS_P1;SDS_P2;PMS_P1;PMS_P2;Temp;Humidity;BMP_temperature;BMP_pressure;BME280_temperature;BME280_humidity;BME280_pressure;Samples;Min_cycle;Max_cycle;Signal;HPM_P1;HPM_P2
2022/12/17 13:06:53;;;;;;;5.82;3.63;;;21.10;99.90;;;;;;4968750;28;20061;-74
2022/12/17 13:09:31;;;;;;;7.43;4.13;;;21.10;99.90;;;;;;4971332;28;20047;-76
2022/12/17 13:12:03;;;;;;;8.07;2.80;;;21.10;99.90;;;;;;4968195;28;20035;-75
2022/12/17 13:14:57;;;;;;;5.65;2.75;;;21.20;99.90;;;;;;4953898;28;20114;-74
2022/12/17 13:17:36;;;;;;;5.82;2.65;;;21.10;99.90;;;;;;4970317;28;20520;-79
2022/12/17 13:20:32;;;;;;;3.42;2.15;;;21.10;99.90;;;;;;4971295;28;20151;-74
2022/12/17 13:23:10;;;;;;;11.50;3.15;;;21.00;99.90;;;;;;4951813;28;20414;-74
2022/12/17 13:25:37;;;;;;;5.07;2.50;;;21.00;99.90;;;;;;4950767;28;20051;-76
2022/12/17 13:28:29;;;;;;;5.97;3.00;;;21.00;99.90;;;;;;4938964;28;20036;-74
2022/12/17 13:31:04;;;;;;;7.57;3.75;;;21.00;99.90;;;;;;4977994;28;20149;-74
2022/12/17 13:34:06;;;;;;;5.43;2.67;;;20.90;99.90;;;;;;4969830;28;20046;-75
2022/12/17 13:36:54;;;;;;;7.18;3.33;;;21.00;99.90;;;;;;4969982;28;20054;-74
2022/12/17 13:39:43;;;;;;;6.28;2.05;;;21.00;99.90;;;;;;4953364;28;20137;-74
2022/12/17 13:42:33;;;;;;;5.20;2.53;;;21.00;99.90;;;;;;4956334;28;20054;-75
2022/12/17 13:45:02;;;;;;;6.82;3.65;;;21.00;99.90;;;;;;4949728;29;20043;-77
2022/12/17 13:47:34;;;;;;;5.45;4.10;;;20.90;99.90;;;;;;4951156;29;20082;-75
2022/12/17 13:50:24;;;;;;;10.27;5.85;;;20.90;99.90;;;;;;4928514;28;20046;-75
2022/12/17 13:53:11;;;;;;;27.15;17.08;;;20.80;99.90;;;;;;4964808;28;20047;-75
2022/12/17 13:55:39;;;;;;;18.77;12.15;;;20.80;99.90;;;;;;4968675;28;20058;-74
2022/12/17 13:58:27;;;;;;;23.60;15.95;;;20.80;99.90;;;;;;4952646;28;20373;-75
2022/12/17 14:01:11;;;;;;;15.73;9.07;;;20.70;99.90;;;;;;4968540;28;20484;-76
2022/12/17 14:03:47;;;;;;;8.85;4.93;;;20.70;99.90;;;;;;4964238;28;20078;-76
2022/12/17 14:06:37;;;;;;;6.40;2.80;;;20.60;99.90;;;;;;4949963;28;20043;-74
2022/12/17 14:09:05;;;;;;;8.43;3.72;;;20.50;99.90;;;;;;4951200;28;20057;-74
2022/12/17 14:14:34;;;;;;;5.50;2.50;;;20.40;99.90;;;;;;4953999;28;20058;-75
2022/12/17 14:17:02;;;;;;;9.15;3.25;;;20.30;99.90;;;;;;4970819;28;20125;-74
2022/12/17 14:19:32;;;;;;;4.25;2.60;;;20.30;99.90;;;;;;4953080;28;20465;-75
2022/12/17 14:22:00;;;;;;;5.43;3.47;;;20.30;99.90;;;;;;4966891;28;20059;-74
2022/12/17 14:24:28;;;;;;;10.55;3.95;;;20.20;99.90;;;;;;4962769;28;20058;-74
2022/12/17 14:26:58;;;;;;;7.03;3.78;;;20.20;99.90;;;;;;4935190;29;20051;-74
2022/12/17 14:29:31;;;;;;;7.68;3.38;;;20.10;99.90;;;;;;4934964;29;20499;-82
2022/12/17 14:32:01;;;;;;;6.78;4.13;;;20.00;99.90;;;;;;4952296;28;20044;-74
2022/12/17 14:34:40;;;;;;;8.63;3.85;;;20.00;99.90;;;;;;4960800;28;20042;-74
2022/12/17 14:37:17;;;;;;;6.05;2.88;;;20.00;99.90;;;;;;4970387;28;20102;-74
2022/12/17 14:39:46;;;;;;;5.85;2.40;;;19.90;99.90;;;;;;4969885;28;20042;-74
2022/12/17 14:42:28;;;;;;;7.57;4.32;;;20.00;99.90;;;;;;4970875;28;20058;-75
2022/12/17 14:44:59;;;;;;;6.00;2.65;;;20.00;99.90;;;;;;4962703;28;20047;-74
2022/12/17 14:47:31;;;;;;;8.07;2.42;;;19.90;99.90;;;;;;4957993;28;20381;-76
2022/12/17 14:50:05;;;;;;;4.68;2.20;;;19.80;99.90;;;;;;4974222;28;20049;-75
2022/12/17 14:52:52;;;;;;;8.68;4.40;;;19.80;99.90;;;;;;4974156;28;20055;-75
2022/12/17 14:55:38;;;;;;;7.10;3.05;;;19.80;99.90;;;;;;4975087;28;20050;-76
2022/12/17 14:58:14;;;;;;;6.03;3.40;;;19.70;99.90;;;;;;4973613;28;20186;-77
2022/12/17 15:01:05;;;;;;;8.80;4.00;;;19.70;99.90;;;;;;4973629;28;20181;-76
2022/12/17 15:03:38;;;;;;;6.85;3.90;;;19.60;99.90;;;;;;4957501;28;20460;-75
2022/12/17 15:06:10;;;;;;;8.38;4.75;;;19.60;99.90;;;;;;4956602;28;20065;-75
2022/12/17 15:08:55;;;;;;;11.40;6.57;;;19.50;99.90;;;;;;4955060;28;20047;-74
2022/12/17 15:11:24;;;;;;;11.65;5.47;;;19.40;99.90;;;;;;4954830;29;20059;-74
2022/12/17 15:13:51;;;;;;;9.95;5.78;;;19.30;99.90;;;;;;4954390;28;20069;-74
2022/12/17 15:16:22;;;;;;;13.45;6.75;;;19.20;99.90;;;;;;4975169;28;20444;-76
2022/12/17 15:18:49;;;;;;;14.85;6.68;;;19.10;99.90;;;;;;4958299;28;20051;-75
2022/12/17 15:21:18;;;;;;;11.30;5.82;;;19.10;99.90;;;;;;4974297;28;20078;-74
2022/12/17 15:23:46;;;;;;;14.10;6.68;;;19.00;99.90;;;;;;4962097;28;20043;-73
2022/12/17 15:26:14;;;;;;;12.75;6.22;;;19.00;99.90;;;;;;4953953;28;20142;-77
2022/12/17 15:28:43;;;;;;;14.63;5.88;;;19.00;99.90;;;;;;4986126;28;20086;-74
2022/12/17 15:31:12;;;;;;;12.88;7.30;;;19.00;99.90;;;;;;4964529;28;20065;-75
2022/12/17 15:33:40;;;;;;;8.95;5.55;;;19.00;99.90;;;;;;4950547;28;20054;-74
2022/12/17 15:36:10;;;;;;;7.90;5.47;;;18.90;99.90;;;;;;4964071;28;20057;-74
2022/12/17 15:38:38;;;;;;;16.05;6.68;;;18.90;99.90;;;;;;4972546;28;20496;-75
2022/12/17 15:43:52;;;;;;;88.00;39.88;;;18.80;99.90;;;;;;4957678;28;20055;-77
2022/12/17 15:46:20;;;;;;;48.50;26.40;;;18.80;99.90;;;;;;4968105;28;20047;-76
2022/12/17 15:48:48;;;;;;;35.53;19.08;;;18.70;99.90;;;;;;4971816;28;20366;-74
2022/12/17 15:51:18;;;;;;;83.60;35.78;;;18.70;99.90;;;;;;4947911;29;20051;-73
2022/12/17 15:53:47;;;;;;;101.38;49.92;;;18.70;99.90;;;;;;4969070;28;20897;-77
2022/12/17 15:56:26;;;;;;;57.60;29.75;;;18.70;99.90;;;;;;4973080;28;20493;-77
2022/12/17 15:58:57;;;;;;;35.92;18.20;;;18.60;99.90;;;;;;4972854;28;20054;-75
2022/12/17 16:01:25;;;;;;;32.35;18.67;;;18.60;99.90;;;;;;4972513;28;20051;-77
2022/12/17 16:03:53;;;;;;;18.67;11.55;;;18.60;99.90;;;;;;4970858;28;20046;-76
2022/12/17 16:06:21;;;;;;;15.60;9.80;;;18.50;99.90;;;;;;4954703;28;20134;-75
2022/12/17 16:08:48;;;;;;;12.60;8.05;;;18.50;99.90;;;;;;4969495;28;20079;-76
2022/12/17 16:11:16;;;;;;;12.38;7.97;;;18.40;99.90;;;;;;4959617;28;20829;-74
2022/12/17 16:13:44;;;;;;;12.52;7.28;;;18.30;99.90;;;;;;4953633;28;20044;-75
2022/12/17 16:16:11;;;;;;;12.25;8.13;;;18.30;99.90;;;;;;4970582;28;20082;-76
2022/12/17 16:18:39;;;;;;;10.57;7.80;;;18.10;99.90;;;;;;4972176;28;20043;-76
2022/12/17 16:21:08;;;;;;;10.70;6.57;;;18.10;99.90;;;;;;4954921;28;20051;-77
2022/12/17 16:23:36;;;;;;;9.95;5.20;;;18.10;99.90;;;;;;4972133;28;20042;-77
2022/12/17 16:26:05;;;;;;;12.60;7.22;;;18.10;99.90;;;;;;4951278;29;20401;-76
2022/12/17 16:28:34;;;;;;;11.13;7.05;;;18.10;99.90;;;;;;4951645;28;20043;-77
2022/12/17 16:31:06;;;;;;;9.93;7.38;;;18.10;99.90;;;;;;4953842;28;20138;-77
2022/12/17 16:33:36;;;;;;;11.48;8.10;;;18.10;99.90;;;;;;4951765;29;20058;-76
2022/12/17 16:36:05;;;;;;;11.80;7.65;;;18.00;99.90;;;;;;4951047;28;20085;-77
2022/12/17 16:38:33;;;;;;;15.50;7.72;;;18.00;99.90;;;;;;4955211;28;20054;-76
2022/12/17 16:41:02;;;;;;;12.73;9.48;;;18.00;99.90;;;;;;4966933;28;20043;-75
2022/12/17 16:43:33;;;;;;;12.63;8.32;;;18.00;99.90;;;;;;4967990;28;20043;-75
2022/12/17 16:46:01;;;;;;;16.48;8.27;;;18.00;99.90;;;;;;4970022;28;20055;-77
2022/12/17 16:48:36;;;;;;;11.57;6.78;;;18.00;99.90;;;;;;4972091;28;20082;-77
2022/12/17 16:51:15;;;;;;;14.63;5.18;;;18.10;99.90;;;;;;4953963;29;20067;-76
2022/12/17 16:53:45;;;;;;;13.57;6.68;;;18.10;99.90;;;;;;4952686;29;20474;-77
2022/12/17 16:56:23;;;;;;;13.18;7.22;;;18.10;99.90;;;;;;4953133;29;20061;-78
2022/12/17 16:58:51;;;;;;;12.77;6.97;;;18.10;99.90;;;;;;4952955;29;20067;-76
2022/12/17 17:01:24;;;;;;;11.80;6.53;;;18.10;99.90;;;;;;4954332;28;20043;-76
2022/12/17 17:03:52;;;;;;;12.20;6.25;;;18.10;99.90;;;;;;4958529;28;20039;-76
2022/12/17 17:06:20;;;;;;;12.57;7.50;;;18.10;99.90;;;;;;4972801;28;20142;-77
2022/12/17 17:08:49;;;;;;;12.50;6.97;;;18.10;99.90;;;;;;4971103;28;20050;-76
2022/12/17 17:11:20;;;;;;;10.55;6.95;;;18.10;99.90;;;;;;4972380;28;20051;-75
2022/12/17 17:13:49;;;;;;;10.68;8.10;;;18.10;99.90;;;;;;4970301;28;20062;-78
2022/12/17 17:16:18;;;;;;;15.82;9.05;;;18.10;99.90;;;;;;4971135;28;20054;-76
2022/12/17 17:18:46;;;;;;;17.83;10.95;;;18.10;99.90;;;;;;4973557;28;20039;-77
2022/12/17 17:21:24;;;;;;;13.60;10.85;;;18.10;99.90;;;;;;4972929;28;20050;-76
2022/12/17 17:24:16;;;;;;;14.60;10.52;;;18.10;99.90;;;;;;4972854;28;20042;-76
2022/12/17 17:26:47;;;;;;;17.20;11.68;;;18.10;99.90;;;;;;4952357;29;20039;-77
2022/12/17 17:29:15;;;;;;;25.42;14.00;;;18.20;99.90;;;;;;4937304;29;20062;-76
2022/12/17 17:31:42;;;;;;;17.67;12.18;;;18.20;99.90;;;;;;4952112;29;20047;-77
2022/12/17 17:34:30;;;;;;;18.40;13.27;;;18.10;99.90;;;;;;4937578;28;20039;-76
2022/12/17 17:36:58;;;;;;;24.05;14.43;;;18.10;99.90;;;;;;4971118;28;20050;-76
2022/12/17 17:39:26;;;;;;;23.98;14.48;;;18.10;99.90;;;;;;4956088;28;20373;-80
2022/12/17 17:41:53;;;;;;;17.50;13.88;;;18.10;99.90;;;;;;4973236;28;20148;-76
2022/12/17 17:44:21;;;;;;;22.25;14.82;;;18.10;99.90;;;;;;4971924;28;20685;-77
2022/12/17 17:46:48;;;;;;;16.77;12.88;;;18.00;99.90;;;;;;4972200;28;20098;-77
2022/12/17 17:49:16;;;;;;;17.33;11.80;;;18.00;99.90;;;;;;4973067;28;20126;-78
2022/12/17 17:51:43;;;;;;;17.88;13.88;;;18.00;99.90;;;;;;4970896;28;20066;-77
2022/12/17 17:54:31;;;;;;;20.67;14.98;;;17.90;99.90;;;;;;4964494;28;20047;-77
2022/12/17 17:56:59;;;;;;;25.52;18.27;;;17.90;99.90;;;;;;4950558;29;20062;-77
2022/12/17 17:59:27;;;;;;;36.15;26.10;;;17.90;99.90;;;;;;4951676;28;20047;-78
2022/12/17 18:01:59;;;;;;;34.47;24.85;;;17.90;99.90;;;;;;4957349;28;20051;-77
2022/12/17 18:04:27;;;;;;;24.95;17.50;;;17.90;99.90;;;;;;4953218;28;20051;-78
2022/12/17 18:06:55;;;;;;;16.02;10.85;;;17.90;99.90;;;;;;4969481;28;20050;-77
2022/12/17 18:09:42;;;;;;;13.63;8.60;;;17.80;99.90;;;;;;4968870;28;20400;-78
2022/12/17 18:14:56;;;;;;;16.05;9.98;;;17.80;99.90;;;;;;4969550;28;20126;-78
2022/12/17 18:17:39;;;;;;;26.55;17.27;;;17.80;99.90;;;;;;4951758;28;20532;-77
2022/12/17 18:20:08;;;;;;;36.83;25.42;;;17.70;99.90;;;;;;4967413;28;20034;-78
2022/12/17 18:22:36;;;;;;;27.30;19.92;;;17.70;99.90;;;;;;4980341;28;20051;-79
2022/12/17 18:25:04;;;;;;;22.63;17.45;;;17.60;99.90;;;;;;4982464;28;20070;-79
2022/12/17 18:27:32;;;;;;;32.88;21.95;;;17.50;99.90;;;;;;4953023;28;20130;-79
2022/12/17 18:30:00;;;;;;;25.02;18.23;;;17.40;99.90;;;;;;4950566;28;20055;-77
2022/12/17 18:32:27;;;;;;;26.13;18.33;;;17.20;99.90;;;;;;4948961;28;20106;-79
2022/12/17 18:34:55;;;;;;;22.23;14.95;;;17.10;99.90;;;;;;4956864;28;20050;-79
2022/12/17 18:37:23;;;;;;;16.13;11.15;;;17.20;99.90;;;;;;4960260;28;20047;-79
2022/12/17 18:39:50;;;;;;;14.07;9.80;;;17.10;99.90;;;;;;4970481;28;20047;-76
2022/12/17 18:45:04;;;;;;;15.45;11.20;;;17.20;99.90;;;;;;4947752;29;20055;-76
2022/12/17 18:47:32;;;;;;;16.90;9.80;;;17.20;99.90;;;;;;4952673;28;20054;-76
2022/12/17 18:49:59;;;;;;;17.70;9.23;;;17.20;99.90;;;;;;4949654;29;20079;-75
2022/12/17 18:52:27;;;;;;;20.02;10.52;;;17.20;99.90;;;;;;4950370;28;20047;-75
2022/12/17 18:54:55;;;;;;;20.77;13.93;;;17.20;99.90;;;;;;4952827;28;20054;-77
2022/12/17 18:57:22;;;;;;;13.40;9.38;;;17.20;99.90;;;;;;4948838;29;20066;-76
2022/12/17 18:59:50;;;;;;;17.60;10.07;;;17.20;99.90;;;;;;4952992;28;20121;-75
2022/12/17 19:02:17;;;;;;;16.95;11.25;;;17.20;99.90;;;;;;4958590;28;20131;-75
2022/12/17 19:04:45;;;;;;;17.85;9.55;;;17.20;99.90;;;;;;4968181;28;20062;-75
2022/12/17 19:07:12;;;;;;;25.50;18.35;;;17.20;99.90;;;;;;4968868;28;20086;-76
2022/12/17 19:09:41;;;;;;;14.98;10.23;;;17.10;99.90;;;;;;4952083;28;20378;-76
2022/12/17 19:12:09;;;;;;;15.80;9.48;;;17.00;99.90;;;;;;4969472;28;20098;-76
2022/12/17 19:14:36;;;;;;;13.18;7.50;;;16.90;99.90;;;;;;4969360;28;20055;-75
2022/12/17 19:17:04;;;;;;;21.23;15.63;;;16.80;99.90;;;;;;4952239;28;20160;-76
2022/12/17 19:19:32;;;;;;;21.73;15.35;;;16.60;99.90;;;;;;4968909;28;20043;-75
2022/12/17 19:22:00;;;;;;;33.42;20.33;;;16.60;99.90;;;;;;4967863;28;20101;-76
2022/12/17 19:24:28;;;;;;;33.88;24.17;;;16.50;99.90;;;;;;4964549;28;20051;-75
2022/12/17 19:26:56;;;;;;;39.33;24.70;;;16.60;99.90;;;;;;4969368;28;20038;-77
2022/12/17 19:29:23;;;;;;;34.28;24.13;;;16.50;99.90;;;;;;4971978;28;20062;-76
2022/12/17 19:31:51;;;;;;;37.90;25.58;;;16.60;99.90;;;;;;4971737;28;20062;-76
2022/12/17 19:34:19;;;;;;;32.13;24.55;;;16.60;99.90;;;;;;4969929;28;20055;-75
2022/12/17 19:36:47;;;;;;;31.48;23.02;;;16.60;99.90;;;;;;4955373;28;20058;-77
2022/12/17 19:39:17;;;;;;;26.38;17.15;;;16.50;99.90;;;;;;4972630;28;20050;-76
2022/12/17 19:41:45;;;;;;;17.67;12.40;;;16.30;99.90;;;;;;4972308;28;20070;-75
2022/12/17 19:44:15;;;;;;;13.95;10.98;;;16.20;99.90;;;;;;4947275;28;20048;-77
2022/12/17 19:46:43;;;;;;;18.45;12.88;;;16.30;99.90;;;;;;4957636;28;20057;-76
2022/12/17 19:49:12;;;;;;;22.80;15.50;;;16.30;99.90;;;;;;4972424;28;20055;-78
2022/12/17 19:51:41;;;;;;;26.83;13.13;;;16.40;99.90;;;;;;4945423;29;20049;-78
2022/12/17 19:54:14;;;;;;;20.13;12.23;;;16.50;99.90;;;;;;4922604;29;20090;-80
2022/12/17 19:56:43;;;;;;;17.25;11.30;;;16.60;99.90;;;;;;4955927;28;20047;-80
2022/12/17 19:59:12;;;;;;;16.05;10.73;;;16.60;99.90;;;;;;4954186;29;20446;-79
2022/12/17 20:01:45;;;;;;;16.60;10.18;;;16.70;99.90;;;;;;4952843;29;20149;-75
2022/12/17 20:04:15;;;;;;;15.68;6.95;;;16.70;99.90;;;;;;4936609;29;20062;-77
2022/12/17 20:06:43;;;;;;;12.65;8.15;;;16.80;99.90;;;;;;4934292;29;20446;-77
2022/12/17 20:09:12;;;;;;;21.95;13.63;;;16.80;99.90;;;;;;4953380;29;20043;-80
2022/12/17 20:11:40;;;;;;;21.83;14.25;;;16.80;99.90;;;;;;4960154;28;20122;-78
2022/12/17 20:14:15;;;;;;;17.63;11.82;;;16.90;99.90;;;;;;4972559;28;20046;-78
2022/12/17 20:16:48;;;;;;;21.15;13.57;;;16.90;99.90;;;;;;4952953;28;20090;-76
2022/12/17 20:19:19;;;;;;;30.27;22.20;;;16.90;99.90;;;;;;4968093;28;20047;-77
2022/12/17 20:21:47;;;;;;;24.83;16.73;;;16.90;99.90;;;;;;4970748;28;20051;-78
2022/12/17 20:24:15;;;;;;;21.90;14.82;;;16.90;99.90;;;;;;4969486;28;20381;-79
2022/12/17 20:26:45;;;;;;;34.55;21.90;;;16.80;99.90;;;;;;4937024;28;20050;-78
2022/12/17 20:29:13;;;;;;;1999.90;869.03;;;16.90;99.90;;;;;;4954418;28;20137;-77
2022/12/17 20:31:44;;;;;;;306.98;184.98;;;16.90;99.90;;;;;;4971498;28;20049;-78
2022/12/17 20:34:15;;;;;;;98.57;61.20;;;16.90;99.90;;;;;;4969501;28;20053;-77
2022/12/17 20:36:43;;;;;;;34.00;25.00;;;17.00;99.90;;;;;;4952439;28;20787;-80
2022/12/17 20:39:11;;;;;;;35.38;23.90;;;17.00;99.90;;;;;;4954403;28;20095;-78
2022/12/17 20:41:40;;;;;;;37.97;26.05;;;17.00;99.90;;;;;;4970208;28;20440;-79
2022/12/17 20:44:12;;;;;;;90.32;57.70;;;17.00;99.90;;;;;;4953817;28;20153;-75
2022/12/17 20:46:40;;;;;;;84.10;54.40;;;17.00;99.90;;;;;;4969071;28;20051;-77
2022/12/17 20:49:11;;;;;;;46.35;31.95;;;16.90;99.90;;;;;;4969405;28;20454;-76
2022/12/17 20:51:39;;;;;;;28.00;19.33;;;16.90;99.90;;;;;;4931965;29;20050;-72
2022/12/17 20:54:08;;;;;;;26.38;18.98;;;16.70;99.90;;;;;;4966504;28;20063;-75
2022/12/17 20:56:38;;;;;;;25.27;18.88;;;16.70;99.90;;;;;;4970604;28;20051;-77
2022/12/17 20:59:10;;;;;;;26.83;20.45;;;16.60;99.90;;;;;;4937998;28;20053;-75
2022/12/17 21:01:38;;;;;;;36.03;26.77;;;16.60;99.90;;;;;;4969934;28;20097;-77
2022/12/17 21:04:06;;;;;;;124.25;82.93;;;16.60;99.90;;;;;;4954050;28;20038;-81
2022/12/17 21:06:42;;;;;;;60.40;45.53;;;16.40;99.90;;;;;;4967320;28;20138;-78
2022/12/17 21:09:10;;;;;;;;;;;16.40;99.90;;;;;;4971239;28;20496;-75
2022/12/17 21:11:39;;;;;;;46.92;37.03;;;16.30;99.90;;;;;;4970640;28;19930;-76
2022/12/17 21:14:11;;;;;;;50.45;37.95;;;16.30;99.90;;;;;;4971141;28;20381;-73
2022/12/17 21:16:40;;;;;;;47.60;35.45;;;16.20;99.90;;;;;;4966655;28;20039;-76
2022/12/17 21:19:10;;;;;;;42.53;34.53;;;16.10;99.90;;;;;;4970822;28;20042;-74
2022/12/17 21:21:38;;;;;;;43.05;32.33;;;16.00;99.90;;;;;;4970098;28;20054;-74
2022/12/17 21:24:07;;;;;;;42.90;38.25;;;16.00;99.90;;;;;;4970202;28;20098;-78
2022/12/17 21:26:36;;;;;;;47.75;38.97;;;16.00;99.90;;;;;;4953863;28;20042;-77
2022/12/17 21:29:06;;;;;;;44.45;36.65;;;16.00;99.90;;;;;;4969528;28;20050;-78
2022/12/17 21:31:46;;;;;;;34.30;30.63;;;16.00;99.90;;;;;;4954070;28;20043;-76
2022/12/17 21:34:20;;;;;;;31.73;25.52;;;16.00;99.90;;;;;;4954505;28;20528;-79
2022/12/17 21:36:49;;;;;;;28.25;21.05;;;16.10;99.90;;;;;;4964147;28;20040;-77
2022/12/17 21:39:17;;;;;;;27.25;17.77;;;16.00;99.90;;;;;;4934978;29;20124;-76
2022/12/17 21:43:00;;;;;;;22.95;18.20;;;16.00;99.90;;;;;;4951866;28;20794;-78
2022/12/17 21:44:35;;;;;;;25.67;17.80;;;16.00;99.90;;;;;;4955425;28;20077;-76
2022/12/17 21:47:03;;;;;;;21.80;17.42;;;16.00;99.90;;;;;;4951426;28;20051;-77
2022/12/17 21:49:30;;;;;;;23.95;17.02;;;16.00;99.90;;;;;;4954249;28;20083;-78
2022/12/17 21:51:58;;;;;;;19.52;15.75;;;16.00;99.90;;;;;;4962594;28;20051;-79
2022/12/17 21:54:26;;;;;;;22.42;14.43;;;16.00;99.90;;;;;;4964383;28;20110;-75
2022/12/17 21:56:53;;;;;;;15.48;10.77;;;16.00;99.90;;;;;;4963366;28;20042;-77
2022/12/17 21:59:21;;;;;;;12.90;9.55;;;16.00;99.90;;;;;;4971710;28;20097;-74
2022/12/17 22:01:50;;;;;;;15.15;11.10;;;15.90;99.90;;;;;;4970250;28;20046;-74
2022/12/17 22:04:17;;;;;;;20.05;15.45;;;15.80;99.90;;;;;;4963090;28;20057;-78
2022/12/17 22:06:45;;;;;;;29.83;19.92;;;15.80;99.90;;;;;;4965862;28;20055;-78
2022/12/17 22:09:12;;;;;;;24.83;21.30;;;15.70;99.90;;;;;;4967067;28;20472;-77
2022/12/17 22:11:40;;;;;;;27.77;19.77;;;15.70;99.90;;;;;;4967265;28;20042;-75
2022/12/17 22:14:12;;;;;;;32.00;22.73;;;15.70;99.90;;;;;;4952725;28;20051;-75
2022/12/17 22:16:45;;;;;;;30.42;20.92;;;15.70;99.90;;;;;;4966269;28;20400;-81
2022/12/17 22:19:16;;;;;;;252.32;142.20;;;15.70;99.90;;;;;;4969081;28;20037;-84
2022/12/17 22:21:46;;;;;;;428.08;281.08;;;15.70;99.90;;;;;;4961634;28;20662;-78
2022/12/17 22:24:16;;;;;;;233.43;146.07;;;15.70;99.90;;;;;;4965074;28;20039;-76
2022/12/17 22:26:44;;;;;;;93.10;60.30;;;15.70;99.90;;;;;;4952752;28;20062;-77
2022/12/17 22:32:58;;;;;;;54.00;44.60;;;15.70;99.90;;;;;;4964288;28;20097;-77
2022/12/17 22:34:46;;;;;;;53.55;39.40;;;15.70;99.90;;;;;;4957216;28;20154;-77
2022/12/17 22:37:13;;;;;;;46.25;34.20;;;15.60;99.90;;;;;;4972258;28;20369;-76
2022/12/17 22:39:41;;;;;;;39.67;30.73;;;15.70;99.90;;;;;;4974236;28;20166;-78
2022/12/17 22:44:55;;;;;;;37.92;23.63;;;15.70;99.90;;;;;;4973098;28;20046;-76
2022/12/17 22:47:25;;;;;;;35.80;23.10;;;15.60;99.90;;;;;;4968263;28;20490;-75
2022/12/17 22:49:52;;;;;;;39.05;26.63;;;15.50;99.90;;;;;;4967677;28;20070;-78
2022/12/17 22:52:20;;;;;;;42.97;29.98;;;15.50;99.90;;;;;;4967840;28;20105;-78
2022/12/17 22:54:47;;;;;;;34.08;25.48;;;15.50;99.90;;;;;;4964380;28;20043;-78
2022/12/17 22:57:15;;;;;;;28.10;22.10;;;15.50;99.90;;;;;;4966659;28;20047;-77
2022/12/17 22:59:44;;;;;;;27.23;20.27;;;15.50;99.90;;;;;;4970067;28;20470;-76
2022/12/17 23:02:11;;;;;;;21.95;16.63;;;15.50;99.90;;;;;;4953986;28;20512;-75
2022/12/17 23:04:39;;;;;;;28.92;18.83;;;15.50;99.90;;;;;;4972615;28;20038;-78
2022/12/17 23:07:07;;;;;;;24.45;18.60;;;15.50;99.90;;;;;;4965359;28;20079;-76
2022/12/17 23:09:34;;;;;;;24.33;16.88;;;15.50;99.90;;;;;;4954932;28;20592;-76
2022/12/17 23:12:49;;;;;;;24.38;17.13;;;15.50;99.90;;;;;;4954332;28;20099;-74
2022/12/17 23:14:50;;;;;;;21.83;15.00;;;15.50;99.90;;;;;;4964641;28;20161;-74
2022/12/17 23:17:17;;;;;;;16.63;12.35;;;15.40;99.90;;;;;;4943604;28;20050;-77
2022/12/17 23:19:45;;;;;;;14.10;10.55;;;15.40;99.90;;;;;;4961605;28;20512;-78
2022/12/17 23:22:13;;;;;;;18.15;13.43;;;15.30;99.90;;;;;;4963651;28;20059;-76
2022/12/17 23:24:43;;;;;;;18.63;13.60;;;15.30;99.90;;;;;;4963963;28;20568;-74
2022/12/17 23:27:14;;;;;;;26.23;18.15;;;15.30;99.90;;;;;;4973294;28;20048;-77
2022/12/17 23:29:41;;;;;;;145.52;89.45;;;15.30;99.90;;;;;;4973365;28;20174;-78
2022/12/17 23:32:09;;;;;;;40.90;25.45;;;15.30;99.90;;;;;;4971327;28;20046;-77
2022/12/17 23:34:36;;;;;;;93.18;56.42;;;15.30;99.90;;;;;;4935817;29;20051;-79
2022/12/17 23:37:04;;;;;;;96.00;59.03;;;15.30;99.90;;;;;;4953346;28;20130;-79
2022/12/17 23:39:32;;;;;;;161.43;91.65;;;15.30;99.90;;;;;;4958475;28;20078;-75
2022/12/17 23:42:00;;;;;;;28.70;17.45;;;15.30;99.90;;;;;;4961133;28;20044;-74
2022/12/17 23:44:27;;;;;;;12.50;6.85;;;15.30;99.90;;;;;;4978158;28;20074;-73
2022/12/17 23:46:54;;;;;;;8.55;6.47;;;15.30;99.90;;;;;;4957046;28;20735;-74
2022/12/17 23:49:22;;;;;;;13.38;6.10;;;15.30;99.90;;;;;;4963892;28;20061;-78
2022/12/17 23:51:50;;;;;;;7.25;5.28;;;15.20;99.90;;;;;;4959903;28;20047;-74
2022/12/17 23:54:17;;;;;;;8.95;4.63;;;15.20;99.90;;;;;;4966521;28;20039;-77
2022/12/17 23:56:45;;;;;;;10.52;7.07;;;15.20;99.90;;;;;;4955145;28;20043;-75
2022/12/17 23:59:12;;;;;;;24.35;14.57;;;15.10;99.90;;;;;;4954117;28;20509;-78
